Time;durP1;ratioP1;P1;durP2;ratioP2;P2;SDS_P1;SDS_P2;PMS_P1;PMS_P2;Temp;Humidity;BMP_temperature;BMP_pressure;BME280_temperature;BME280_humidity;BME280_pressure;Samples;Min_cycle;Max_cycle;Signal;HPM_P1;HPM_P2
2021/06/06 00:02:07;;;;;;;788.33;719.00;;;;;;;;;;5058508;28;20403;-79
2021/06/06 00:04:39;;;;;;;801.70;730.87;;;;;;;;;;5058581;28;20410;-79
2021/06/06 00:07:05;;;;;;;803.77;733.90;;;;;;;;;;5058576;28;20399;-80
2021/06/06 00:09:31;;;;;;;792.63;722.93;;;;;;;;;;5057393;28;20430;-79
2021/06/06 00:11:57;;;;;;;777.50;708.30;;;;;;;;;;5058637;28;20926;-79
2021/06/06 00:14:31;;;;;;;801.07;731.53;;;;;;;;;;5059752;28;20438;-79
2021/06/06 00:16:59;;;;;;;802.00;732.13;;;;;;;;;;5060392;28;20399;-79
2021/06/06 00:19:25;;;;;;;789.43;720.43;;;;;;;;;;5063030;28;20411;-80
2021/06/06 00:21:53;;;;;;;755.80;687.60;;;;;;;;;;5063308;28;20403;-78
2021/06/06 00:24:20;;;;;;;785.13;715.67;;;;;;;;;;5062933;28;20399;-79
2021/06/06 00:26:48;;;;;;;769.63;701.03;;;;;;;;;;5063740;28;20487;-80
2021/06/06 00:29:14;;;;;;;759.20;691.07;;;;;;;;;;5061305;28;20431;-80
2021/06/06 00:31:44;;;;;;;775.63;706.83;;;;;;;;;;5044556;28;20415;-79
2021/06/06 00:34:13;;;;;;;745.10;676.97;;;;;;;;;;5062265;28;20451;-79
2021/06/06 00:36:39;;;;;;;773.57;704.77;;;;;;;;;;5062356;28;20767;-78
2021/06/06 00:39:05;;;;;;;797.07;726.63;;;;;;;;;;5061735;28;20434;-79
2021/06/06 00:41:35;;;;;;;808.50;737.63;;;;;;;;;;5044750;28;20410;-79
2021/06/06 00:44:01;;;;;;;786.10;715.90;;;;;;;;;;5050407;28;20418;-80
2021/06/06 00:46:28;;;;;;;811.73;740.43;;;;;;;;;;5071171;28;20433;-79
2021/06/06 00:48:55;;;;;;;785.83;715.93;;;;;;;;;;5070920;28;20422;-79
2021/06/06 00:51:26;;;;;;;790.10;720.03;;;;;;;;;;5070385;28;20403;-79
2021/06/06 00:53:53;;;;;;;761.53;691.80;;;;;;;;;;5070202;28;20469;-80
2021/06/06 00:56:23;;;;;;;796.10;725.33;;;;;;;;;;5070131;28;20444;-81
2021/06/06 00:58:50;;;;;;;777.80;708.63;;;;;;;;;;5068942;28;20422;-79
2021/06/06 01:01:17;;;;;;;794.97;725.47;;;;;;;;;;5066353;28;20395;-79
2021/06/06 01:03:46;;;;;;;736.47;668.73;;;;;;;;;;5065622;28;20825;-79
2021/06/06 01:06:25;;;;;;;782.47;711.57;;;;;;;;;;5068865;28;20407;-79
2021/06/06 01:08:51;;;;;;;799.57;728.90;;;;;;;;;;5064228;28;20425;-79
2021/06/06 01:11:23;;;;;;;786.47;715.90;;;;;;;;;;5065233;28;20434;-79
2021/06/06 01:13:56;;;;;;;805.63;734.13;;;;;;;;;;5065901;28;20897;-78
2021/06/06 01:16:31;;;;;;;775.70;705.90;;;;;;;;;;5064511;28;20433;-80
2021/06/06 01:18:58;;;;;;;739.17;670.97;;;;;;;;;;5057074;28;20769;-77
2021/06/06 01:21:42;;;;;;;742.13;673.47;;;;;;;;;;5054853;28;20392;-77
2021/06/06 01:24:21;;;;;;;762.27;692.90;;;;;;;;;;5035925;28;20408;-78
2021/06/06 01:26:53;;;;;;;754.07;684.77;;;;;;;;;;5036875;28;20388;-79
2021/06/06 01:29:24;;;;;;;774.90;704.80;;;;;;;;;;5028300;28;20438;-83
2021/06/06 01:31:53;;;;;;;770.23;700.53;;;;;;;;;;5030558;28;20491;-80
2021/06/06 01:34:21;;;;;;;737.53;668.90;;;;;;;;;;5030479;28;20455;-79
2021/06/06 01:36:50;;;;;;;760.43;691.37;;;;;;;;;;5048298;28;20475;-79
2021/06/06 01:39:22;;;;;;;743.57;675.20;;;;;;;;;;5048251;28;20503;-80
2021/06/06 01:41:52;;;;;;;745.07;676.77;;;;;;;;;;5031808;28;20439;-81
2021/06/06 01:44:20;;;;;;;753.00;684.23;;;;;;;;;;5082167;28;20441;-81
2021/06/06 01:46:57;;;;;;;728.33;660.53;;;;;;;;;;5079633;28;20398;-79
2021/06/06 01:49:23;;;;;;;726.73;658.10;;;;;;;;;;5079157;28;20432;-80
2021/06/06 01:51:52;;;;;;;747.83;679.37;;;;;;;;;;5076702;28;20406;-79
2021/06/06 01:54:19;;;;;;;734.37;666.37;;;;;;;;;;5056988;28;20451;-80
2021/06/06 01:56:46;;;;;;;720.17;652.27;;;;;;;;;;5061732;28;20463;-81
2021/06/06 01:59:16;;;;;;;720.93;654.00;;;;;;;;;;5046918;28;20427;-79
2021/06/06 02:01:42;;;;;;;685.57;619.83;;;;;;;;;;5064985;28;20426;-77
2021/06/06 02:04:08;;;;;;;723.90;656.67;;;;;;;;;;5058590;28;20417;-77
2021/06/06 02:06:38;;;;;;;723.27;655.90;;;;;;;;;;5076335;28;20403;-77
2021/06/06 02:09:09;;;;;;;684.97;618.47;;;;;;;;;;5068542;28;20484;-78
2021/06/06 02:11:36;;;;;;;727.23;659.53;;;;;;;;;;5048359;28;20780;-77
2021/06/06 02:14:06;;;;;;;720.97;653.60;;;;;;;;;;5065797;28;20503;-77
2021/06/06 02:16:34;;;;;;;677.17;611.20;;;;;;;;;;5063249;28;20517;-77
2021/06/06 02:19:00;;;;;;;688.70;622.27;;;;;;;;;;5045791;28;20427;-77
2021/06/06 02:21:28;;;;;;;685.73;619.37;;;;;;;;;;5062320;28;20410;-76
2021/06/06 02:23:54;;;;;;;706.47;639.47;;;;;;;;;;5062949;28;20480;-76
2021/06/06 02:26:32;;;;;;;678.47;611.63;;;;;;;;;;5063435;28;20407;-76
2021/06/06 02:29:10;;;;;;;699.33;631.67;;;;;;;;;;5045799;28;20465;-76
2021/06/06 02:32:02;;;;;;;700.70;633.40;;;;;;;;;;5063722;28;20482;-78
2021/06/06 02:34:44;;;;;;;693.33;626.33;;;;;;;;;;5019294;28;20462;-78
2021/06/06 02:37:24;;;;;;;678.07;610.90;;;;;;;;;;5058032;28;20432;-78
2021/06/06 02:39:52;;;;;;;695.70;629.10;;;;;;;;;;5055849;28;20534;-76
2021/06/06 02:42:27;;;;;;;667.43;600.97;;;;;;;;;;5056578;28;20893;-80
2021/06/06 02:44:58;;;;;;;680.17;613.17;;;;;;;;;;5053784;28;20972;-76
2021/06/06 02:47:28;;;;;;;702.80;634.70;;;;;;;;;;5036947;28;20465;-77
2021/06/06 02:49:56;;;;;;;688.93;621.53;;;;;;;;;;5035068;28;20427;-77
2021/06/06 02:52:40;;;;;;;685.53;618.57;;;;;;;;;;5054310;28;20897;-77
2021/06/06 02:55:09;;;;;;;657.70;591.40;;;;;;;;;;5041668;28;20469;-81
2021/06/06 02:57:38;;;;;;;708.17;638.97;;;;;;;;;;5044030;28;20403;-82
2021/06/06 03:00:22;;;;;;;754.27;689.77;;;;;;;;;;5058862;28;20450;-79
2021/06/06 03:02:50;;;;;;;711.90;659.13;;;;;;;;;;5057999;28;20406;-78
2021/06/06 03:05:18;;;;;;;723.27;659.57;;;;;;;;;;5058248;28;20828;-79
2021/06/06 03:07:49;;;;;;;717.47;648.17;;;;;;;;;;5057824;28;20900;-86
2021/06/06 03:10:16;;;;;;;720.47;653.40;;;;;;;;;;5057545;28;20425;-85
2021/06/06 03:12:43;;;;;;;688.80;621.00;;;;;;;;;;5040060;28;20420;-86
2021/06/06 03:15:11;;;;;;;737.70;668.83;;;;;;;;;;5058346;28;20446;-86
2021/06/06 03:17:38;;;;;;;700.17;632.10;;;;;;;;;;5037961;28;20399;-78
2021/06/06 03:20:08;;;;;;;683.70;616.87;;;;;;;;;;5054329;28;20802;-79
2021/06/06 03:22:37;;;;;;;704.70;636.80;;;;;;;;;;5055828;28;20449;-84
2021/06/06 03:25:13;;;;;;;681.53;614.13;;;;;;;;;;5057193;28;20403;-79
2021/06/06 03:27:41;;;;;;;688.07;620.33;;;;;;;;;;5039388;28;20457;-78
2021/06/06 03:30:20;;;;;;;692.17;623.70;;;;;;;;;;5056472;28;20414;-78
2021/06/06 03:32:47;;;;;;;686.63;618.23;;;;;;;;;;5039539;28;20514;-78
2021/06/06 03:35:14;;;;;;;722.77;658.90;;;;;;;;;;5037329;28;20454;-81
2021/06/06 03:37:40;;;;;;;689.93;621.97;;;;;;;;;;5055518;28;20407;-80
2021/06/06 03:40:07;;;;;;;700.70;632.77;;;;;;;;;;5055162;28;20442;-81
2021/06/06 03:42:36;;;;;;;691.90;624.93;;;;;;;;;;5036989;28;20461;-80
2021/06/06 03:45:02;;;;;;;690.20;622.93;;;;;;;;;;5062944;28;20413;-81
2021/06/06 03:47:28;;;;;;;681.77;613.60;;;;;;;;;;5076684;28;20424;-79
2021/06/06 03:49:54;;;;;;;688.50;620.97;;;;;;;;;;5070107;28;20435;-80
2021/06/06 03:52:20;;;;;;;718.07;654.27;;;;;;;;;;5073435;28;21026;-80
2021/06/06 03:54:46;;;;;;;719.33;652.17;;;;;;;;;;5053079;28;20466;-79
2021/06/06 03:57:12;;;;;;;701.30;636.23;;;;;;;;;;5057996;28;20407;-79
2021/06/06 03:59:38;;;;;;;688.93;621.03;;;;;;;;;;5040773;28;20433;-80
2021/06/06 04:02:05;;;;;;;700.57;632.80;;;;;;;;;;5059228;28;20403;-79
2021/06/06 04:04:31;;;;;;;706.17;640.13;;;;;;;;;;5059434;28;20485;-79
2021/06/06 04:06:57;;;;;;;691.90;630.33;;;;;;;;;;5077773;28;21005;-79
2021/06/06 04:09:23;;;;;;;669.97;602.20;;;;;;;;;;5078428;28;20422;-79
2021/06/06 04:11:51;;;;;;;11.13;5.87;;;;;;;;;;5079443;28;20478;-81
2021/06/06 04:14:17;;;;;;;9.57;6.90;;;;;;;;;;5077012;28;20452;-80
2021/06/06 04:16:43;;;;;;;10.77;6.37;;;;;;;;;;5058301;28;20381;-81
2021/06/06 04:19:09;;;;;;;7.67;5.33;;;;;;;;;;5058855;28;20411;-79
2021/06/06 04:21:36;;;;;;;11.37;7.10;;;;;;;;;;5041134;28;20418;-80
2021/06/06 04:24:02;;;;;;;8.90;5.03;;;;;;;;;;5058773;28;20392;-80
2021/06/06 04:26:28;;;;;;;9.60;6.37;;;;;;;;;;5059504;28;20374;-79
2021/06/06 04:28:54;;;;;;;7.90;6.03;;;;;;;;;;5060403;28;20409;-80
2021/06/06 04:31:23;;;;;;;8.70;6.83;;;;;;;;;;5038727;28;20411;-78
2021/06/06 04:33:49;;;;;;;10.00;5.60;;;;;;;;;;5055724;28;20384;-78
2021/06/06 04:36:15;;;;;;;10.93;5.73;;;;;;;;;;5056076;28;20399;-78
2021/06/06 04:38:44;;;;;;;7.47;5.60;;;;;;;;;;5056406;28;20405;-79
2021/06/06 04:41:13;;;;;;;6.93;5.17;;;;;;;;;;5039234;28;20414;-78
2021/06/06 04:43:39;;;;;;;12.27;5.07;;;;;;;;;;5039795;28;20385;-79
2021/06/06 04:46:05;;;;;;;9.23;6.80;;;;;;;;;;5057657;28;20373;-78
2021/06/06 04:48:35;;;;;;;12.80;8.33;;;;;;;;;;5057824;28;20370;-78
2021/06/06 04:51:03;;;;;;;14.67;9.47;;;;;;;;;;5076874;28;20481;-78
2021/06/06 04:53:31;;;;;;;7.30;5.13;;;;;;;;;;5060853;28;20469;-78
2021/06/06 04:55:58;;;;;;;11.67;5.30;;;;;;;;;;5058461;28;20473;-78
2021/06/06 04:58:28;;;;;;;40.53;28.23;;;;;;;;;;5055353;28;20418;-77
2021/06/06 05:00:54;;;;;;;29.13;26.25;;;;;;;;;;5071140;28;20401;-79
2021/06/06 05:03:20;;;;;;;45.90;33.07;;;;;;;;;;5070935;28;20395;-82
2021/06/06 05:05:46;;;;;;;363.95;136.88;;;;;;;;;;5060735;28;21007;-82
2021/06/06 05:08:13;;;;;;;455.55;318.10;;;;;;;;;;5061369;28;20410;-82
2021/06/06 05:10:40;;;;;;;354.60;118.85;;;;;;;;;;5066763;28;20173;-82
2021/06/06 05:13:06;;;;;;;376.15;132.07;;;;;;;;;;5085078;28;20164;-82
2021/06/06 05:15:33;;;;;;;363.27;117.70;;;;;;;;;;5084600;28;20215;-79
2021/06/06 05:17:59;;;;;;;351.23;103.72;;;;;;;;;;5083484;28;20238;-79
2021/06/06 05:20:28;;;;;;;341.27;110.35;;;;;;;;;;5082593;28;20207;-80
2021/06/06 05:22:54;;;;;;;307.33;84.45;;;;;;;;;;5072101;28;20192;-79
2021/06/06 05:25:20;;;;;;;331.80;104.32;;;;;;;;;;5063938;28;20161;-80
2021/06/06 05:27:46;;;;;;;242.30;78.05;;;;;;;;;;5045464;28;20201;-79
2021/06/06 05:30:48;;;;;;;386.27;147.50;;;;;;;;;;5061407;28;20312;-79
2021/06/06 05:33:15;;;;;;;22.55;21.17;;;;;;;;;;5059618;28;20411;-79
2021/06/06 05:35:41;;;;;;;17.38;16.48;;;;;;;;;;5061235;28;20189;-80
2021/06/06 05:38:11;;;;;;;15.63;14.83;;;;;;;;;;5057091;28;20174;-79
2021/06/06 05:40:38;;;;;;;22.70;21.20;;;;;;;;;;5056197;28;20443;-79
2021/06/06 05:43:04;;;;;;;14.82;13.98;;;;;;;;;;5056828;28;20183;-79
2021/06/06 05:45:31;;;;;;;315.34;98.56;;;;;;;;;;5056625;28;20182;-79
2021/06/06 05:47:57;;;;;;;334.45;167.13;;;;;;;;;;5037910;28;20473;-79
2021/06/06 05:50:28;;;;;;;314.77;94.23;;;;;;;;;;5057490;28;20269;-79
2021/06/06 05:52:54;;;;;;;427.98;252.98;;;;;;;;;;5059534;28;20404;-79
2021/06/06 05:55:21;;;;;;;240.23;76.43;;;;;;;;;;5065339;28;20197;-80
2021/06/06 05:57:47;;;;;;;270.13;76.85;;;;;;;;;;5050101;28;20222;-80
2021/06/06 06:00:17;;;;;;;161.43;55.92;;;;;;;;;;5049558;28;20202;-80
2021/06/06 06:02:43;;;;;;;19.48;18.38;;;;;;;;;;5065372;28;20200;-79
2021/06/06 06:05:09;;;;;;;174.60;58.77;;;;;;;;;;5048089;28;20186;-80
2021/06/06 06:07:37;;;;;;;237.50;107.70;;;;;;;;;;5067900;28;20444;-80
2021/06/06 06:10:06;;;;;;;98.15;54.22;;;;;;;;;;5065817;28;20272;-86
2021/06/06 06:12:32;;;;;;;111.35;54.17;;;;;;;;;;5078804;28;20923;-81
2021/06/06 06:14:58;;;;;;;104.78;55.60;;;;;;;;;;5078113;28;20198;-82
2021/06/06 06:17:24;;;;;;;85.45;45.05;;;;;;;;;;5076708;28;20168;-85
2021/06/06 06:19:50;;;;;;;76.53;43.83;;;;;;;;;;5077914;28;20550;-84
2021/06/06 06:22:18;;;;;;;75.75;42.85;;;;;;;;;;5078840;28;20448;-82
2021/06/06 06:24:46;;;;;;;56.60;34.58;;;;;;;;;;5077823;28;20401;-84
2021/06/06 06:27:14;;;;;;;70.20;41.28;;;;;;;;;;5084388;28;20701;-80
2021/06/06 06:29:40;;;;;;;54.50;37.72;;;;;;;;;;5081596;28;20412;-80
2021/06/06 06:32:07;;;;;;;34.90;30.63;;;;;;;;;;5066646;28;20194;-81
2021/06/06 06:34:33;;;;;;;44.63;34.23;;;;;;;;;;5084298;28;20439;-81
2021/06/06 06:36:59;;;;;;;202.23;68.10;;;;;;;;;;5084388;28;20405;-81
2021/06/06 06:39:25;;;;;;;20.50;18.30;;;;;;;;;;5065259;28;20441;-81
2021/06/06 06:41:51;;;;;;;83.27;44.53;;;;;;;;;;5083118;28;20409;-81
2021/06/06 06:44:17;;;;;;;239.50;75.13;;;;;;;;;;5064545;28;20435;-80
2021/06/06 06:46:43;;;;;;;288.10;98.90;;;;;;;;;;5083938;28;20399;-80
2021/06/06 06:49:09;;;;;;;312.23;89.30;;;;;;;;;;5083947;28;20458;-79
2021/06/06 06:51:35;;;;;;;49.43;27.93;;;;;;;;;;5078558;28;20403;-80
2021/06/06 06:54:01;;;;;;;53.35;36.15;;;;;;;;;;5060923;28;20808;-80
2021/06/06 06:56:28;;;;;;;58.57;38.60;;;;;;;;;;5077607;28;20277;-80
2021/06/06 06:58:55;;;;;;;25.58;23.95;;;;;;;;;;5059677;28;20429;-79
2021/06/06 07:01:21;;;;;;;11.02;5.00;;;;;;;;;;5060081;28;20189;-79
2021/06/06 07:03:47;;;;;;;10.17;5.17;;;;;;;;;;5060673;28;20253;-78
2021/06/06 07:06:14;;;;;;;11.50;6.13;;;;;;;;;;5079780;28;20402;-80
2021/06/06 07:08:41;;;;;;;11.00;5.33;;;;;;;;;;5063841;28;20399;-81
2021/06/06 07:11:09;;;;;;;564.97;507.13;;;;;;;;;;5064897;28;20373;-81
2021/06/06 07:13:35;;;;;;;6.20;4.57;;;;;;;;;;5064770;28;20441;-81
2021/06/06 07:16:02;;;;;;;10.97;6.53;;;;;;;;;;5064878;28;20447;-79
2021/06/06 07:18:28;;;;;;;6.20;4.60;;;;;;;;;;5063147;28;20457;-82
2021/06/06 07:20:55;;;;;;;50.53;47.77;;;;;;;;;;5062383;28;20741;-81
2021/06/06 07:23:22;;;;;;;14.70;8.40;;;;;;;;;;5049357;28;20407;-82
2021/06/06 07:25:48;;;;;;;10.60;5.80;;;;;;;;;;5062468;28;20414;-77
2021/06/06 07:28:16;;;;;;;9.00;4.23;;;;;;;;;;5065729;28;20474;-76
2021/06/06 07:30:46;;;;;;;13.30;4.77;;;;;;;;;;5066605;28;20473;-80
2021/06/06 07:33:13;;;;;;;586.90;535.07;;;;;;;;;;5069975;28;20498;-79
2021/06/06 07:35:39;;;;;;;279.50;263.87;;;;;;;;;;5060404;28;20462;-79
2021/06/06 07:38:06;;;;;;;12.43;6.40;;;;;;;;;;5080142;28;20407;-79
2021/06/06 07:40:34;;;;;;;10.20;5.70;;;;;;;;;;5081460;28;20466;-79
2021/06/06 07:43:00;;;;;;;10.87;5.43;;;;;;;;;;5062337;28;20366;-79
2021/06/06 07:45:28;;;;;;;10.23;7.27;;;;;;;;;;5082881;28;20436;-79
2021/06/06 07:47:54;;;;;;;11.97;6.03;;;;;;;;;;5063042;28;20728;-79
2021/06/06 07:50:22;;;;;;;7.50;5.67;;;;;;;;;;5054686;28;20430;-80
2021/06/06 07:52:48;;;;;;;7.73;5.23;;;;;;;;;;5063988;28;20397;-82
2021/06/06 07:55:15;;;;;;;14.17;6.27;;;;;;;;;;5058894;28;20923;-81
2021/06/06 07:57:41;;;;;;;7.13;2.87;;;;;;;;;;5056693;28;20378;-79
2021/06/06 08:00:11;;;;;;;6.47;5.20;;;;;;;;;;5056532;28;20395;-78
2021/06/06 08:02:37;;;;;;;12.70;5.90;;;;;;;;;;5059450;28;20373;-81
2021/06/06 08:05:04;;;;;;;10.33;6.40;;;;;;;;;;5040899;28;20389;-81
2021/06/06 08:07:30;;;;;;;8.50;6.10;;;;;;;;;;5063727;28;20598;-81
2021/06/06 08:09:56;;;;;;;9.77;6.63;;;;;;;;;;5063771;28;20397;-80
2021/06/06 08:12:26;;;;;;;6.40;3.77;;;;;;;;;;5065985;28;20409;-81
2021/06/06 08:14:54;;;;;;;10.07;4.43;;;;;;;;;;5065770;28;20478;-81
2021/06/06 08:17:21;;;;;;;10.27;4.57;;;;;;;;;;5067850;28;20408;-81
2021/06/06 08:19:47;;;;;;;5.83;3.33;;;;;;;;;;5075606;28;20426;-78
2021/06/06 08:22:13;;;;;;;25.17;4.70;;;;;;;;;;5052281;28;20407;-79
2021/06/06 08:24:39;;;;;;;7.23;5.43;;;;;;;;;;5043330;28;20398;-79
2021/06/06 08:27:05;;;;;;;11.37;5.50;;;;;;;;;;5061991;28;20388;-81
2021/06/06 08:29:32;;;;;;;9.63;4.03;;;;;;;;;;5057338;28;20486;-78
2021/06/06 08:31:59;;;;;;;227.97;217.77;;;;;;;;;;5046718;28;20385;-78
2021/06/06 08:34:25;;;;;;;;;;;;;;;;;;5048124;28;20431;-77
2021/06/06 08:36:53;;;;;;;54.72;42.33;;;;;;;;;;5041342;28;20427;-75
2021/06/06 08:39:25;;;;;;;24.48;22.98;;;;;;;;;;5037126;28;20211;-76
2021/06/06 08:41:51;;;;;;;;;;;;;;;;;;5045661;28;20190;-75
2021/06/06 08:44:31;;;;;;;53.97;38.05;;;;;;;;;;5024910;28;20960;-76
2021/06/06 08:47:06;;;;;;;53.95;39.55;;;;;;;;;;5044343;28;20448;-76
2021/06/06 08:49:36;;;;;;;158.75;58.92;;;;;;;;;;5042149;28;20392;-75
2021/06/06 08:52:05;;;;;;;1042.32;969.38;;;;;;;;;;5024585;28;20403;-73
2021/06/06 08:54:49;;;;;;;399.52;156.20;;;;;;;;;;5043354;28;20201;-73
2021/06/06 08:57:20;;;;;;;539.77;479.90;;;;;;;;;;5044423;28;20172;-74
2021/06/06 08:59:49;;;;;;;510.73;421.20;;;;;;;;;;5043623;28;20450;-76
2021/06/06 09:02:18;;;;;;;280.87;268.10;;;;;;;;;;5028017;28;20161;-76
2021/06/06 09:04:47;;;;;;;8.13;7.33;;;;;;;;;;5043298;28;20435;-76
2021/06/06 09:07:34;;;;;;;14.60;13.53;;;;;;;;;;5054035;28;20414;-76
2021/06/06 09:10:03;;;;;;;366.90;349.87;;;;;;;;;;5052373;28;20432;-76
2021/06/06 09:12:29;;;;;;;144.67;138.20;;;;;;;;;;5056908;28;20838;-76
2021/06/06 09:14:56;;;;;;;359.90;343.17;;;;;;;;;;5053072;28;20503;-76
2021/06/06 09:17:34;;;;;;;634.73;598.33;;;;;;;;;;5039423;28;20385;-76
2021/06/06 09:20:00;;;;;;;641.10;604.27;;;;;;;;;;5034523;28;20968;-76
2021/06/06 09:22:40;;;;;;;762.90;716.70;;;;;;;;;;5058773;28;20415;-75
2021/06/06 09:25:28;;;;;;;751.40;707.40;;;;;;;;;;5029597;28;20415;-75
2021/06/06 09:28:01;;;;;;;598.57;564.73;;;;;;;;;;5014308;28;20473;-75
2021/06/06 09:30:27;;;;;;;719.93;679.03;;;;;;;;;;5022881;28;20430;-77
2021/06/06 09:33:03;;;;;;;730.33;683.77;;;;;;;;;;5044173;28;20454;-76
2021/06/06 09:35:34;;;;;;;902.50;831.73;;;;;;;;;;5053691;28;20488;-75
2021/06/06 09:38:15;;;;;;;855.97;801.80;;;;;;;;;;5043248;28;20416;-76
2021/06/06 09:40:45;;;;;;;778.37;727.30;;;;;;;;;;5039082;28;20438;-76
2021/06/06 09:43:30;;;;;;;910.23;834.10;;;;;;;;;;5044620;28;20483;-76
2021/06/06 09:46:11;;;;;;;914.63;839.83;;;;;;;;;;5041322;28;20870;-76
2021/06/06 09:48:43;;;;;;;905.97;832.97;;;;;;;;;;5043799;28;20925;-75
2021/06/06 09:51:15;;;;;;;918.00;842.47;;;;;;;;;;5058769;28;20418;-76
2021/06/06 09:53:43;;;;;;;909.10;841.30;;;;;;;;;;5048272;28;20522;-76
2021/06/06 09:56:09;;;;;;;888.20;816.57;;;;;;;;;;5053621;28;20830;-75
2021/06/06 09:58:38;;;;;;;897.07;824.00;;;;;;;;;;5050937;28;20403;-76
2021/06/06 10:01:23;;;;;;;860.33;786.47;;;;;;;;;;5053266;28;20800;-77
2021/06/06 10:03:53;;;;;;;855.33;781.23;;;;;;;;;;5038402;28;20403;-76
2021/06/06 10:06:29;;;;;;;874.37;800.30;;;;;;;;;;5049969;28;20404;-78
2021/06/06 10:09:24;;;;;;;893.27;817.87;;;;;;;;;;5061835;28;20482;-78
2021/06/06 10:11:50;;;;;;;886.30;811.83;;;;;;;;;;5033462;28;20419;-78
2021/06/06 10:14:18;;;;;;;879.13;804.60;;;;;;;;;;5050028;28;20546;-78
2021/06/06 10:16:45;;;;;;;860.77;787.03;;;;;;;;;;5061639;28;20490;-78
2021/06/06 10:19:21;;;;;;;863.63;789.93;;;;;;;;;;5065701;28;20421;-78
2021/06/06 10:21:47;;;;;;;858.67;785.47;;;;;;;;;;5061571;28;20409;-78
2021/06/06 10:24:13;;;;;;;865.77;791.97;;;;;;;;;;5052730;28;20407;-78
2021/06/06 10:26:52;;;;;;;839.37;767.00;;;;;;;;;;5049292;28;20482;-79
2021/06/06 10:29:28;;;;;;;854.77;781.07;;;;;;;;;;5070204;28;20443;-79
2021/06/06 10:31:55;;;;;;;834.37;761.60;;;;;;;;;;5072217;28;20410;-79
2021/06/06 10:34:24;;;;;;;859.17;787.43;;;;;;;;;;5049957;28;20452;-79
2021/06/06 10:36:50;;;;;;;875.07;800.57;;;;;;;;;;5054090;28;20432;-79
2021/06/06 10:39:18;;;;;;;837.67;765.37;;;;;;;;;;5047783;28;21031;-79
2021/06/06 10:41:54;;;;;;;829.90;757.57;;;;;;;;;;5054860;28;20400;-79
2021/06/06 10:44:20;;;;;;;843.17;773.00;;;;;;;;;;5054212;28;20395;-79
2021/06/06 10:46:56;;;;;;;854.13;780.83;;;;;;;;;;5050246;28;20411;-77
2021/06/06 10:49:22;;;;;;;846.40;772.60;;;;;;;;;;5054469;28;20995;-79
2021/06/06 10:52:01;;;;;;;857.93;784.43;;;;;;;;;;5049655;28;20399;-79
2021/06/06 10:54:33;;;;;;;842.80;769.70;;;;;;;;;;5054310;28;20819;-75
2021/06/06 10:57:01;;;;;;;836.27;763.77;;;;;;;;;;5024507;28;20460;-72
2021/06/06 10:59:36;;;;;;;816.83;744.67;;;;;;;;;;5041384;28;20511;-75
2021/06/06 11:02:02;;;;;;;831.10;758.90;;;;;;;;;;5024054;28;20742;-73
2021/06/06 11:04:32;;;;;;;825.33;753.73;;;;;;;;;;5036194;28;20414;-77
2021/06/06 11:07:06;;;;;;;845.13;771.97;;;;;;;;;;5066600;28;20505;-78
2021/06/06 11:09:34;;;;;;;829.23;757.13;;;;;;;;;;5065196;28;20500;-77
2021/06/06 11:12:02;;;;;;;828.83;756.43;;;;;;;;;;5048518;28;20971;-77
2021/06/06 11:14:49;;;;;;;826.60;755.10;;;;;;;;;;5029191;28;20450;-78
2021/06/06 11:17:33;;;;;;;835.57;763.30;;;;;;;;;;5059091;28;20427;-77
2021/06/06 11:20:28;;;;;;;852.00;777.93;;;;;;;;;;5063811;28;20484;-77
2021/06/06 11:22:57;;;;;;;845.97;773.07;;;;;;;;;;5009047;28;20449;-77
2021/06/06 11:25:31;;;;;;;843.80;770.83;;;;;;;;;;5049680;28;20410;-77
2021/06/06 11:28:02;;;;;;;852.03;778.87;;;;;;;;;;5044864;28;20417;-78
2021/06/06 11:30:28;;;;;;;845.47;772.87;;;;;;;;;;5057396;28;20451;-77
2021/06/06 11:33:00;;;;;;;828.40;756.60;;;;;;;;;;5041223;28;20407;-78
2021/06/06 11:35:26;;;;;;;841.50;768.70;;;;;;;;;;5051805;28;20918;-78
2021/06/06 11:37:57;;;;;;;824.30;752.50;;;;;;;;;;5062023;28;20390;-74
2021/06/06 11:40:41;;;;;;;828.70;756.60;;;;;;;;;;5061858;28;20484;-73
2021/06/06 11:43:13;;;;;;;815.37;743.57;;;;;;;;;;5013775;28;20420;-75
2021/06/06 11:45:43;;;;;;;813.87;742.50;;;;;;;;;;5031780;28;20404;-74
2021/06/06 11:48:11;;;;;;;826.43;754.33;;;;;;;;;;5041959;28;20403;-78
2021/06/06 11:50:44;;;;;;;824.63;752.87;;;;;;;;;;5035821;28;20430;-73
2021/06/06 11:53:13;;;;;;;819.67;748.47;;;;;;;;;;5042229;28;20419;-73
2021/06/06 11:55:41;;;;;;;845.33;771.97;;;;;;;;;;5062414;28;21093;-75
2021/06/06 11:58:14;;;;;;;805.10;734.43;;;;;;;;;;5059959;28;20724;-75
2021/06/06 12:00:48;;;;;;;843.07;770.87;;;;;;;;;;5060855;28;20428;-74
2021/06/06 12:03:17;;;;;;;821.23;749.13;;;;;;;;;;5048334;28;20402;-74
2021/06/06 12:06:03;;;;;;;819.77;749.00;;;;;;;;;;5065822;28;20399;-74
2021/06/06 12:08:29;;;;;;;822.03;750.70;;;;;;;;;;5060657;28;21382;-74
2021/06/06 12:10:57;;;;;;;810.33;739.50;;;;;;;;;;5042039;28;20410;-74
2021/06/06 12:13:27;;;;;;;827.37;756.23;;;;;;;;;;5042163;28;20396;-74
2021/06/06 12:16:03;;;;;;;794.83;724.40;;;;;;;;;;5045910;28;20488;-74
2021/06/06 12:18:29;;;;;;;840.20;767.60;;;;;;;;;;5046631;28;20481;-74
2021/06/06 12:20:59;;;;;;;852.93;780.17;;;;;;;;;;5044469;28;20419;-74
2021/06/06 12:23:30;;;;;;;809.87;739.10;;;;;;;;;;5039936;28;20448;-74
2021/06/06 12:26:16;;;;;;;817.00;745.70;;;;;;;;;;5052529;28;20415;-74
2021/06/06 12:28:44;;;;;;;826.83;755.13;;;;;;;;;;5060497;28;20410;-74
2021/06/06 12:31:20;;;;;;;825.20;753.60;;;;;;;;;;5043946;28;21146;-74
2021/06/06 12:33:46;;;;;;;817.23;746.53;;;;;;;;;;5043767;28;20525;-77
2021/06/06 12:36:30;;;;;;;812.93;742.27;;;;;;;;;;5027161;28;20543;-76
2021/06/06 12:38:57;;;;;;;774.73;705.10;;;;;;;;;;5044586;28;20475;-76
2021/06/06 12:41:23;;;;;;;804.40;734.83;;;;;;;;;;5025083;28;20489;-77
2021/06/06 12:43:51;;;;;;;778.33;709.57;;;;;;;;;;5043277;28;20396;-76
2021/06/06 12:46:17;;;;;;;799.67;729.33;;;;;;;;;;5043215;28;20414;-77
2021/06/06 12:48:57;;;;;;;816.03;745.73;;;;;;;;;;5042606;28;20404;-76
2021/06/06 12:51:29;;;;;;;757.70;689.80;;;;;;;;;;5044044;28;20395;-77
2021/06/06 12:54:04;;;;;;;779.87;711.10;;;;;;;;;;5038507;28;20419;-74
2021/06/06 12:56:35;;;;;;;814.70;744.20;;;;;;;;;;5028433;28;20404;-73
2021/06/06 12:59:07;;;;;;;813.63;743.63;;;;;;;;;;5042411;28;20431;-74
2021/06/06 13:01:34;;;;;;;783.33;714.00;;;;;;;;;;5045457;28;20399;-73
2021/06/06 13:04:32;;;;;;;782.23;713.57;;;;;;;;;;5026952;28;20403;-73
2021/06/06 13:07:01;;;;;;;800.83;731.40;;;;;;;;;;5005489;28;20403;-73
2021/06/06 13:09:46;;;;;;;799.47;729.07;;;;;;;;;;5043363;28;20796;-73
2021/06/06 13:12:12;;;;;;;816.67;745.70;;;;;;;;;;5026491;28;20482;-74
2021/06/06 13:14:50;;;;;;;826.53;755.37;;;;;;;;;;5053575;28;20643;-73
2021/06/06 13:17:25;;;;;;;828.77;757.00;;;;;;;;;;5046708;28;20426;-73
2021/06/06 13:19:51;;;;;;;839.17;768.80;;;;;;;;;;5048289;28;20423;-74
2021/06/06 13:22:23;;;;;;;805.07;735.40;;;;;;;;;;5049534;28;20410;-73
2021/06/06 13:24:49;;;;;;;759.30;691.93;;;;;;;;;;5038324;28;20451;-77
2021/06/06 13:27:22;;;;;;;808.10;737.60;;;;;;;;;;5034115;28;20403;-73
2021/06/06 13:29:50;;;;;;;798.87;729.33;;;;;;;;;;5023308;28;20954;-77
2021/06/06 13:32:20;;;;;;;805.60;735.73;;;;;;;;;;5053669;28;20403;-75
2021/06/06 13:34:47;;;;;;;798.07;728.60;;;;;;;;;;5054072;28;20446;-77
2021/06/06 13:37:13;;;;;;;787.63;717.73;;;;;;;;;;5036164;28;20486;-77
2021/06/06 13:39:40;;;;;;;792.60;723.63;;;;;;;;;;5035009;28;20477;-77
2021/06/06 13:42:09;;;;;;;841.30;769.60;;;;;;;;;;5053401;28;20391;-77
2021/06/06 13:44:35;;;;;;;736.97;670.33;;;;;;;;;;5035964;28;20417;-77
2021/06/06 13:47:01;;;;;;;732.67;666.73;;;;;;;;;;5037356;28;20403;-77
2021/06/06 13:49:29;;;;;;;732.87;666.87;;;;;;;;;;5052838;28;20518;-77
2021/06/06 13:51:55;;;;;;;768.63;699.83;;;;;;;;;;5036794;28;20415;-77
2021/06/06 13:54:24;;;;;;;785.30;716.57;;;;;;;;;;5036679;28;20516;-77
2021/06/06 13:56:51;;;;;;;793.07;724.47;;;;;;;;;;5036599;28;20411;-77
2021/06/06 13:59:17;;;;;;;697.93;633.67;;;;;;;;;;5054718;28;21000;-77
2021/06/06 14:01:44;;;;;;;774.30;705.70;;;;;;;;;;5051494;28;20964;-77
2021/06/06 14:04:10;;;;;;;780.30;712.37;;;;;;;;;;5055686;28;20402;-77
2021/06/06 14:06:36;;;;;;;690.45;626.90;;;;;;;;;;5056096;28;20482;-77
2021/06/06 14:09:04;;;;;;;754.27;687.50;;;;;;;;;;5053970;28;20192;-77
2021/06/06 14:11:31;;;;;;;720.33;654.90;;;;;;;;;;5053719;28;20438;-77
2021/06/06 14:14:02;;;;;;;788.23;720.30;;;;;;;;;;5055167;28;20399;-77
2021/06/06 14:16:29;;;;;;;951.70;878.45;;;;;;;;;;5055454;28;20459;-77
2021/06/06 14:18:55;;;;;;;;;;;;;;;;;;5055379;28;20403;-77